イヌヴィック の空港の天気 - METARとTAF

イヌヴィック空港 ( CYEV / YEV ) - カナダ ノースウエスト準州イヌヴィック
飛行場実況気象(Metar)
観測時間10/19 22:00 MDT (10/20 04:00 UTC)
風向・風速東 4m/s
視程10km以上
天気現象
全天の8割程度の雲 雲底高度 1130m
気温-5℃
湿度86%
気圧1012.6hPa
METARCYEV 200400Z 09007KT 15SM BKN037 M05/M07 A2988 RMK SC5 SLP126
過去の天気等 Google飛行場航空写真 Wunderground天気予報

過去48時間のMETAR

飛行場予報(TAF)
発表時間: 10/19 18:38 MDT (10/20 00:38 UTC)
予報対象時間: 19日19時 MDT ~ 20日7時 MDT
風向・風速東北東 4m/s
視程10km以上
少しの雲 雲底高度 910m
全天の4割程度の雲 雲底高度 3660m
19日19時 MDT ~ 19日21時 MDT に一時的に
全天の8割程度の雲 雲底高度 910m
全天を覆う雲 雲底高度 3660m
TAF CYEV 200038Z 2001/2013 06008KT P6SM FEW030 SCT120
TEMPO 2001/2003 BKN030 OVC120 RMK NXT FCST BY 200700Z